Terminal Aerodrome Forecast
Issued by NWS

Home | Current Version | Previous Version | Text Only | Print | Product List | Glossary On
Versions: 1 2 3 4 5 6 7 8 9 10 11 12 13 14 15 16 17 18 19 20 21 22 23 24 25 26 27 28 29 30 31 32 33 34 35 36 37 38
000
FTUS41 KRNK 220538
TAFBCB
TAF
KBCB 220538Z 2206/2306 00000KT P6SM OVC040
     FM220800 00000KT 5SM -DZ BR OVC007
      TEMPO 2209/2212 2SM BR
     FM221400 13003KT P6SM OVC015
     FM221700 14004KT P6SM BKN050
     FM222100 15005KT P6SM VCTS BKN050CB
     FM230000 16003KT P6SM SCT040 BKN250=

USA.gov is the U.S. government's official web portal to all federal, state and local government web resources and services.